Time;durP1;ratioP1;P1;durP2;ratioP2;P2;SDS_P1;SDS_P2;PMS_P1;PMS_P2;Temp;Humidity;BMP_temperature;BMP_pressure;BME280_temperature;BME280_humidity;BME280_pressure;Samples;Min_cycle;Max_cycle;Signal;HPM_P1;HPM_P2
2022/01/28 00:04:12;;;;;;;7.93;1.10;;;5.80;99.90;;;;;;6734115;77;20172;-75
2022/01/28 00:14:26;;;;;;;5.95;1.30;;;5.80;99.90;;;;;;6755299;87;20184;-75
2022/01/28 00:45:05;;;;;;;7.47;1.42;;;5.70;99.90;;;;;;6735642;88;20229;-76
2022/01/28 00:55:06;;;;;;;9.18;1.70;;;5.80;99.90;;;;;;6737870;88;20222;-75
2022/01/28 01:05:08;;;;;;;6.93;1.25;;;5.80;99.90;;;;;;6746807;87;20204;-76
2022/01/28 01:15:12;;;;;;;7.07;1.35;;;5.70;99.90;;;;;;6731589;87;20619;-75
2022/01/28 01:25:23;;;;;;;6.45;1.20;;;5.70;99.90;;;;;;6736114;88;20275;-75
2022/01/28 01:35:23;;;;;;;11.12;1.48;;;5.70;99.90;;;;;;6733625;88;20198;-75
2022/01/28 01:55:34;;;;;;;10.63;1.65;;;5.50;99.90;;;;;;6735354;88;20195;-75
2022/01/28 02:05:34;;;;;;;14.35;1.80;;;5.30;99.90;;;;;;6734111;88;20288;-76
2022/01/28 02:15:35;;;;;;;10.77;1.50;;;5.20;99.90;;;;;;6735378;88;20206;-75
2022/01/28 02:25:35;;;;;;;10.02;1.60;;;5.00;99.90;;;;;;6737902;88;20184;-75
2022/01/28 02:35:36;;;;;;;12.23;1.53;;;4.80;99.90;;;;;;6741313;88;20223;-76
2022/01/28 02:45:38;;;;;;;11.20;1.55;;;4.70;99.90;;;;;;6743370;88;20499;-75
2022/01/28 02:55:41;;;;;;;7.57;1.33;;;4.60;99.90;;;;;;6744287;88;21032;-74
2022/01/28 03:05:41;;;;;;;7.72;1.20;;;4.40;99.90;;;;;;6738347;88;20214;-75
2022/01/28 03:15:50;;;;;;;11.27;1.50;;;4.30;99.90;;;;;;6717780;88;20189;-75
2022/01/28 03:25:50;;;;;;;9.90;1.58;;;4.30;99.90;;;;;;6731806;88;20685;-75
2022/01/28 03:35:51;;;;;;;11.52;1.35;;;4.20;99.90;;;;;;6739983;88;20199;-75
2022/01/28 03:45:51;;;;;;;13.45;2.10;;;4.20;99.90;;;;;;6743474;88;20189;-75
2022/01/28 03:55:53;;;;;;;10.80;1.30;;;4.10;99.90;;;;;;6742002;88;20197;-74
2022/01/28 04:11:26;;;;;;;10.80;1.40;;;4.20;99.90;;;;;;6741717;88;20203;-75
2022/01/28 04:26:21;;;;;;;11.43;1.10;;;4.20;99.90;;;;;;6742970;87;20690;-74
2022/01/28 04:36:25;;;;;;;8.38;1.33;;;4.30;99.90;;;;;;6742218;88;20197;-75
2022/01/28 04:46:43;;;;;;;7.82;1.10;;;4.40;99.90;;;;;;6741698;88;20189;-74
2022/01/28 04:56:55;;;;;;;12.90;2.05;;;4.20;99.90;;;;;;6733461;88;20676;-74
2022/01/28 05:27:55;;;;;;;13.43;1.65;;;3.90;99.90;;;;;;6737579;88;20173;-74
2022/01/28 05:37:56;;;;;;;7.32;1.30;;;3.80;99.90;;;;;;6744282;88;20200;-75
2022/01/28 05:47:58;;;;;;;12.27;1.50;;;3.80;99.90;;;;;;6741741;87;21246;-75
2022/01/28 05:57:58;;;;;;;7.37;1.30;;;3.70;99.90;;;;;;6737436;87;20206;-74
2022/01/28 06:18:02;;;;;;;11.93;1.92;;;3.60;99.90;;;;;;6724479;88;20534;-77
2022/01/28 06:28:03;;;;;;;7.25;1.40;;;4.00;99.90;;;;;;6722338;88;20784;-77
2022/01/28 06:38:04;;;;;;;13.38;2.35;;;4.10;99.90;;;;;;6723445;88;20198;-76
2022/01/28 06:48:07;;;;;;;17.35;1.90;;;4.00;99.90;;;;;;6722646;88;20266;-77
2022/01/28 06:58:08;;;;;;;7.78;2.00;;;4.00;99.90;;;;;;6723791;88;20206;-76
2022/01/28 07:08:09;;;;;;;9.82;2.90;;;3.90;99.90;;;;;;6725150;88;20195;-77
2022/01/28 07:18:10;;;;;;;13.68;2.50;;;3.90;99.90;;;;;;6738908;88;20197;-77
2022/01/28 07:28:10;;;;;;;12.27;2.75;;;3.80;99.90;;;;;;6738468;88;20640;-76
2022/01/28 07:38:11;;;;;;;17.23;2.37;;;3.90;99.90;;;;;;6729198;88;20200;-76
2022/01/28 07:48:11;;;;;;;14.70;2.75;;;3.90;99.90;;;;;;6734873;88;20221;-76
2022/01/28 07:58:12;;;;;;;17.30;2.55;;;4.00;99.90;;;;;;6736965;88;20201;-76
2022/01/28 08:08:13;;;;;;;11.65;2.55;;;4.10;99.90;;;;;;6737673;88;20239;-75
2022/01/28 08:18:13;;;;;;;8.82;1.92;;;4.30;99.90;;;;;;6725125;88;20213;-74
2022/01/28 08:28:14;;;;;;;11.40;2.00;;;4.50;99.90;;;;;;6720338;88;20209;-75
2022/01/28 08:38:16;;;;;;;11.60;2.12;;;4.70;99.90;;;;;;6722879;88;20640;-76
2022/01/28 08:48:17;;;;;;;11.85;2.20;;;4.90;99.90;;;;;;6723697;88;20774;-75
2022/01/28 08:58:17;;;;;;;15.00;3.20;;;5.30;99.90;;;;;;6728684;88;20190;-74
2022/01/28 09:08:18;;;;;;;11.70;3.00;;;5.80;99.90;;;;;;6726031;88;20247;-75
2022/01/28 09:18:19;;;;;;;13.05;2.70;;;6.50;99.90;;;;;;6735485;88;20233;-76
2022/01/28 09:28:20;;;;;;;12.70;3.00;;;7.10;99.90;;;;;;6735095;88;20326;-76
2022/01/28 09:38:20;;;;;;;15.45;2.70;;;7.10;99.90;;;;;;6729598;88;20609;-76
2022/01/28 09:48:22;;;;;;;13.07;2.85;;;7.00;99.90;;;;;;6733683;88;20173;-76
2022/01/28 09:58:23;;;;;;;9.38;2.40;;;7.40;99.90;;;;;;6733466;88;21090;-76
2022/01/28 10:08:26;;;;;;;10.77;2.83;;;7.50;99.90;;;;;;6733602;88;20255;-75
2022/01/28 10:18:56;;;;;;;9.15;2.28;;;7.40;99.90;;;;;;6734544;88;20270;-76
2022/01/28 10:28:58;;;;;;;9.75;2.92;;;7.80;99.90;;;;;;6732043;88;20197;-77
2022/01/28 10:38:59;;;;;;;12.73;3.10;;;8.60;99.90;;;;;;6732599;88;20319;-76
2022/01/28 10:49:04;;;;;;;17.27;3.80;;;9.00;99.90;;;;;;6732022;88;20300;-76
2022/01/28 10:59:05;;;;;;;12.70;2.90;;;9.60;99.90;;;;;;6732688;88;20203;-75
2022/01/28 11:09:08;;;;;;;15.65;3.28;;;10.00;99.90;;;;;;6732945;88;20313;-76
2022/01/28 11:19:12;;;;;;;16.40;3.10;;;9.80;99.90;;;;;;6735856;88;20228;-76
2022/01/28 11:29:24;;;;;;;12.75;2.90;;;9.60;99.90;;;;;;6734786;88;20220;-76
2022/01/28 11:39:35;;;;;;;12.15;3.03;;;8.40;99.90;;;;;;6735052;88;20690;-76
2022/01/28 11:50:11;;;;;;;15.88;2.70;;;7.80;99.90;;;;;;6735682;88;20277;-76
2022/01/28 12:00:38;;;;;;;10.80;2.50;;;8.00;99.90;;;;;;6730506;88;20680;-76
2022/01/28 12:10:43;;;;;;;14.85;2.42;;;8.40;99.90;;;;;;6727015;77;20219;-73
2022/01/28 12:20:47;;;;;;;9.82;1.95;;;8.70;99.90;;;;;;6722095;88;20170;-75
2022/01/28 12:30:56;;;;;;;13.20;2.25;;;8.60;99.90;;;;;;6731430;88;20643;-75
2022/01/28 12:41:05;;;;;;;13.88;1.98;;;8.60;99.90;;;;;;6738723;88;20788;-75
2022/01/28 12:51:07;;;;;;;11.52;2.10;;;9.00;99.90;;;;;;6730532;88;20287;-74
2022/01/28 13:01:12;;;;;;;10.52;1.80;;;9.10;99.90;;;;;;6729676;88;20204;-74
2022/01/28 13:11:13;;;;;;;9.80;1.60;;;9.80;99.90;;;;;;6728570;88;20185;-75
2022/01/28 13:21:13;;;;;;;12.23;1.60;;;10.60;99.90;;;;;;6729124;88;20203;-74
2022/01/28 13:31:24;;;;;;;8.30;1.30;;;10.60;99.90;;;;;;6729648;88;20205;-75
2022/01/28 13:41:26;;;;;;;6.72;1.30;;;11.90;99.90;;;;;;6727211;88;20718;-76
2022/01/28 13:51:26;;;;;;;8.27;1.70;;;12.80;98.30;;;;;;6730609;88;20226;-74
2022/01/28 14:01:28;;;;;;;7.90;2.20;;;12.20;98.80;;;;;;6729928;88;20739;-74
2022/01/28 14:11:39;;;;;;;7.07;1.87;;;13.70;96.10;;;;;;6728662;88;20201;-74
2022/01/28 14:21:41;;;;;;;8.88;1.80;;;11.90;99.70;;;;;;6727527;88;20253;-74
2022/01/28 14:31:42;;;;;;;10.38;1.70;;;9.70;99.90;;;;;;6730247;88;20230;-75
2022/01/28 14:41:44;;;;;;;10.65;2.10;;;8.80;99.90;;;;;;6729421;88;20737;-74
2022/01/28 14:51:51;;;;;;;7.22;1.52;;;8.50;99.90;;;;;;6728760;88;20255;-74
2022/01/28 15:01:54;;;;;;;7.07;1.62;;;8.80;99.90;;;;;;6730432;88;20192;-76
2022/01/28 15:11:54;;;;;;;7.97;1.70;;;8.50;99.90;;;;;;6729511;88;20242;-73
2022/01/28 15:21:55;;;;;;;8.18;1.98;;;8.20;99.90;;;;;;6733300;88;20283;-75
2022/01/28 15:42:20;;;;;;;6.93;2.10;;;8.80;99.90;;;;;;6728053;88;20617;-75
2022/01/28 15:52:20;;;;;;;10.15;2.33;;;8.10;99.90;;;;;;6726129;88;20256;-75
2022/01/28 16:02:21;;;;;;;8.70;2.20;;;7.70;99.90;;;;;;6726088;88;20189;-75
2022/01/28 16:22:37;;;;;;;7.15;2.50;;;7.20;99.90;;;;;;6722078;88;20218;-75
2022/01/28 16:32:37;;;;;;;10.77;3.17;;;6.80;99.90;;;;;;6724574;88;20278;-75
2022/01/28 16:42:41;;;;;;;11.00;3.30;;;6.60;99.90;;;;;;6728562;88;20593;-76
2022/01/28 16:52:42;;;;;;;11.35;4.20;;;6.60;99.90;;;;;;6731344;88;20619;-76
2022/01/28 17:02:46;;;;;;;11.95;4.25;;;6.50;99.90;;;;;;6731478;88;21585;-75
2022/01/28 17:12:48;;;;;;;17.17;4.25;;;6.40;99.90;;;;;;6732887;88;20652;-76
2022/01/28 17:22:50;;;;;;;10.70;4.05;;;6.30;99.90;;;;;;6729116;88;20275;-74
2022/01/28 17:32:54;;;;;;;13.15;4.78;;;6.20;99.90;;;;;;6727630;88;20230;-76
2022/01/28 17:42:54;;;;;;;12.37;4.93;;;6.10;99.90;;;;;;6727905;88;20750;-76
2022/01/28 17:52:59;;;;;;;12.33;5.70;;;6.00;99.90;;;;;;6733733;88;20268;-76
2022/01/28 18:03:01;;;;;;;12.88;6.55;;;5.70;99.90;;;;;;6731809;88;20531;-76
2022/01/28 18:13:04;;;;;;;17.35;7.10;;;5.70;99.90;;;;;;6727568;88;20286;-75
2022/01/28 18:23:05;;;;;;;19.80;7.85;;;5.50;99.90;;;;;;6723734;88;20173;-75
2022/01/28 18:33:06;;;;;;;19.10;8.10;;;5.50;99.90;;;;;;6735741;88;20193;-75
2022/01/28 18:43:07;;;;;;;20.02;8.40;;;5.30;99.90;;;;;;6732908;88;20315;-75
2022/01/28 18:53:09;;;;;;;17.00;8.15;;;5.30;99.90;;;;;;6725037;88;20218;-75
2022/01/28 19:03:09;;;;;;;19.87;8.10;;;5.20;99.90;;;;;;6723691;88;20283;-75
2022/01/28 19:13:12;;;;;;;17.80;7.85;;;5.20;99.90;;;;;;6722632;88;20211;-75
2022/01/28 19:23:13;;;;;;;18.15;7.35;;;5.30;99.90;;;;;;6725016;88;20236;-76
2022/01/28 19:33:15;;;;;;;17.60;7.80;;;5.40;99.90;;;;;;6727009;88;20233;-75
2022/01/28 19:43:16;;;;;;;21.30;7.82;;;5.30;99.90;;;;;;6724625;88;20193;-75
2022/01/28 19:53:16;;;;;;;14.67;6.87;;;5.10;99.90;;;;;;6726139;88;20220;-75
2022/01/28 20:03:17;;;;;;;14.05;7.12;;;4.90;99.90;;;;;;6731332;88;20507;-75
2022/01/28 20:13:18;;;;;;;17.30;6.95;;;4.90;99.90;;;;;;6729393;88;20255;-76
2022/01/28 20:23:18;;;;;;;18.37;8.07;;;4.90;99.90;;;;;;6727776;88;20824;-76
2022/01/28 20:33:19;;;;;;;17.75;6.62;;;4.70;99.90;;;;;;6729568;88;20376;-76
2022/01/28 20:43:21;;;;;;;13.48;6.32;;;4.60;99.90;;;;;;6723597;88;20261;-76
2022/01/28 20:53:21;;;;;;;13.45;6.32;;;4.70;99.90;;;;;;6728933;88;20330;-76
2022/01/28 21:03:22;;;;;;;16.42;6.62;;;4.80;99.90;;;;;;6731496;88;20722;-76
2022/01/28 21:13:23;;;;;;;14.10;6.78;;;4.70;99.90;;;;;;6733947;88;20652;-75
2022/01/28 21:23:23;;;;;;;14.00;5.87;;;4.50;99.90;;;;;;6742109;87;20212;-75
2022/01/28 21:33:24;;;;;;;11.88;4.75;;;4.70;99.90;;;;;;6741721;88;20995;-76
2022/01/28 21:43:28;;;;;;;9.63;4.97;;;4.90;99.90;;;;;;6739975;88;20517;-75
2022/01/28 21:53:29;;;;;;;10.63;5.03;;;5.20;99.90;;;;;;6729774;88;20189;-75
2022/01/28 22:03:29;;;;;;;9.52;4.20;;;5.10;99.90;;;;;;6730655;88;21044;-76
2022/01/28 22:13:30;;;;;;;10.77;4.85;;;5.40;99.90;;;;;;6727084;88;20205;-76
2022/01/28 22:23:30;;;;;;;10.73;4.53;;;5.40;99.90;;;;;;6733534;88;20322;-76
2022/01/28 22:33:31;;;;;;;9.75;4.82;;;5.50;99.90;;;;;;6731497;88;20701;-76
2022/01/28 22:43:32;;;;;;;11.02;5.25;;;5.30;99.90;;;;;;6729598;88;20218;-75
2022/01/28 22:53:33;;;;;;;11.15;4.43;;;5.30;99.90;;;;;;6731476;88;20197;-75
2022/01/28 23:03:34;;;;;;;8.77;4.32;;;5.30;99.90;;;;;;6732712;88;20947;-76
2022/01/28 23:13:38;;;;;;;10.35;4.12;;;5.40;99.90;;;;;;6723107;88;20198;-76
2022/01/28 23:23:38;;;;;;;7.80;3.58;;;5.50;99.90;;;;;;6735885;88;20192;-77
2022/01/28 23:33:39;;;;;;;8.52;3.87;;;5.60;99.90;;;;;;6734789;88;20173;-76
2022/01/28 23:43:39;;;;;;;11.52;4.07;;;5.80;99.90;;;;;;6735110;88;20323;-76
2022/01/28 23:53:40;;;;;;;11.57;4.12;;;5.80;99.90;;;;;;6735291;88;20737;-76
